createdAt,value
2022-11-06T00:06:15.952Z,23.6
2022-11-06T00:12:38.947Z,2.7
2022-11-06T00:18:58.975Z,2.7
2022-11-06T00:25:21.980Z,6.2
2022-11-06T00:31:41.992Z,6.2
2022-11-06T00:38:04.957Z,14.2
2022-11-06T00:44:24.954Z,14.2
2022-11-06T00:50:47.911Z,13.4
2022-11-06T00:57:07.961Z,13.4
2022-11-06T01:03:30.951Z,7.1
2022-11-06T01:09:50.908Z,7.1
2022-11-06T01:16:13.943Z,3.9
2022-11-06T01:22:33.891Z,3.9
2022-11-06T01:28:56.934Z,3.6
2022-11-06T01:35:16.924Z,3.6
2022-11-06T01:41:39.905Z,11.1
2022-11-06T01:48:00.030Z,11.1
2022-11-06T01:54:23.040Z,3.3
2022-11-06T02:00:43.003Z,3.3
2022-11-06T02:07:05.967Z,2.1
2022-11-06T02:13:25.983Z,2.1
2022-11-06T02:19:48.974Z,3.6
2022-11-06T02:26:08.909Z,3.6
2022-11-06T02:32:32.024Z,11.2
2022-11-06T02:38:52.038Z,11.2
2022-11-06T02:45:14.920Z,4.5
2022-11-06T02:51:35.019Z,4.5
2022-11-06T02:57:58.001Z,4.5
2022-11-06T03:04:18.040Z,4.5
2022-11-06T03:10:40.953Z,3.3
2022-11-06T03:17:00.970Z,3.3
2022-11-06T03:23:23.991Z,3.6
2022-11-06T03:29:44.025Z,3.6
2022-11-06T03:36:06.930Z,24.1
2022-11-06T03:42:26.905Z,24.1
2022-11-06T03:48:50.054Z,11.9
2022-11-06T03:55:09.912Z,11.9
2022-11-06T04:01:32.969Z,3.8
2022-11-06T04:07:52.930Z,3.8
2022-11-06T04:14:15.917Z,3.6
2022-11-06T04:36:45.837Z,6.7
2022-11-06T04:43:06.138Z,6.7
2022-11-06T04:49:28.908Z,2.9
2022-11-06T04:55:48.988Z,2.9
2022-11-06T05:02:12.022Z,1.7
2022-11-06T05:08:31.947Z,1.7
2022-11-06T05:14:54.979Z,1.9
2022-11-06T05:21:14.963Z,1.9
2022-11-06T05:27:37.973Z,1.2
2022-11-06T05:33:58.101Z,1.2
2022-11-06T05:40:20.971Z,1.7
2022-11-06T05:46:49.771Z,1.7
2022-11-06T05:53:03.961Z,3.3
2022-11-06T05:59:24.020Z,3.3
2022-11-06T06:05:46.928Z,1.2
2022-11-06T06:12:06.985Z,1.2
2022-11-06T06:18:29.938Z,2.3
2022-11-06T06:24:50.001Z,2.3
2022-11-06T06:31:12.941Z,1.3
2022-11-06T06:37:32.905Z,1.3
2022-11-06T06:43:55.986Z,0.8
2022-11-06T06:50:15.968Z,0.8
2022-11-06T06:56:38.938Z,1.9
2022-11-06T07:02:59.032Z,1.9
2022-11-06T07:09:22.141Z,3.2
2022-11-06T07:15:41.944Z,3.2
2022-11-06T07:22:04.961Z,0.8
2022-11-06T07:28:24.963Z,0.8
2022-11-06T07:34:47.984Z,2
2022-11-06T07:41:07.957Z,2
2022-11-06T07:47:30.991Z,1.8
2022-11-06T07:53:51.054Z,1.8
2022-11-06T08:00:13.909Z,1.8
2022-11-06T08:06:34.049Z,1.8
2022-11-06T08:12:56.972Z,1.7
2022-11-06T08:19:16.946Z,1.7
2022-11-06T08:25:39.945Z,1.8
2022-11-06T08:31:59.956Z,1.8
2022-11-06T08:38:22.975Z,1.6
2022-11-06T08:44:42.968Z,1.6
2022-11-06T08:51:06.156Z,1.4
2022-11-06T08:57:26.250Z,1.4
2022-11-06T09:03:48.984Z,1.4
2022-11-06T09:10:09.263Z,1.4
2022-11-06T09:16:31.931Z,1
2022-11-06T09:22:52.037Z,1
2022-11-06T09:29:14.916Z,5.9
2022-11-06T09:53:00.380Z,10.4
2022-11-06T09:59:16.924Z,10.4
2022-11-06T10:05:39.920Z,3.9
2022-11-06T10:11:59.962Z,3.9
2022-11-06T10:18:22.906Z,8.5
2022-11-06T10:24:43.012Z,8.5
2022-11-06T10:31:06.195Z,0.5
2022-11-06T10:37:25.915Z,0.5
2022-11-06T10:43:48.975Z,1.3
2022-11-06T10:50:08.915Z,1.3
2022-11-06T10:56:31.938Z,3.4
2022-11-06T11:02:51.961Z,3.4
2022-11-06T11:09:14.944Z,3.8
2022-11-06T11:15:34.924Z,3.8
2022-11-06T11:21:57.917Z,0.7
2022-11-06T11:28:18.020Z,0.7
2022-11-06T11:34:44.862Z,0.9
2022-11-06T11:41:00.907Z,0.9
2022-11-06T11:47:23.994Z,6.6
2022-11-06T11:53:43.901Z,6.6
2022-11-06T12:00:06.947Z,1
2022-11-06T12:06:26.950Z,1
2022-11-06T12:12:49.891Z,0.7
2022-11-06T12:19:09.943Z,0.7
2022-11-06T12:25:32.910Z,0.4
2022-11-06T12:31:53.008Z,0.4
2022-11-06T12:38:16.189Z,3.9
2022-11-06T12:44:36.011Z,3.9
2022-11-06T12:50:58.954Z,7.6
2022-11-06T12:57:18.893Z,7.6
2022-11-06T13:03:41.995Z,1.7
2022-11-06T13:10:01.897Z,1.7
2022-11-06T13:16:24.903Z,5.6
2022-11-06T13:22:44.937Z,5.6
2022-11-06T13:29:07.916Z,1.3
2022-11-06T13:35:27.945Z,1.3
2022-11-06T13:41:50.927Z,1.5
2022-11-06T13:48:11.219Z,1.5
2022-11-06T13:54:33.902Z,1
2022-11-06T14:00:53.958Z,1
2022-11-06T14:07:16.949Z,3.4
2022-11-06T14:13:36.923Z,3.4
2022-11-06T14:19:59.992Z,0.9
2022-11-06T14:26:19.931Z,0.9
2022-11-06T14:32:42.944Z,1.6
2022-11-06T14:39:02.966Z,1.6
2022-11-06T14:45:25.904Z,0.8
2022-11-06T14:51:46.002Z,0.8
2022-11-06T14:58:09.189Z,1.5
2022-11-06T15:04:29.043Z,1.5
2022-11-06T15:21:41.844Z,1.2
2022-11-06T15:28:01.878Z,1.2
2022-11-06T15:34:24.953Z,0.9
2022-11-06T15:40:45.033Z,0.9
2022-11-06T15:47:08.037Z,1.7
2022-11-06T15:53:27.934Z,1.7
2022-11-06T15:59:51.020Z,1
2022-11-06T16:06:11.215Z,1
2022-11-06T16:12:33.975Z,1.7
2022-11-06T16:18:53.974Z,1.7
2022-11-06T16:25:17.004Z,0.4
2022-11-06T16:31:36.927Z,0.4
2022-11-06T16:38:19.063Z,1.3
2022-11-06T16:44:20.010Z,1.3
2022-11-06T16:50:42.960Z,2.4
2022-11-06T16:57:03.049Z,2.4
2022-11-06T17:03:25.955Z,5.1
2022-11-06T17:09:45.985Z,5.1
2022-11-06T17:16:09.157Z,1.6
2022-11-06T17:22:28.952Z,1.6
2022-11-06T17:28:52.036Z,4.7
2022-11-06T17:35:12.427Z,4.7
2022-11-06T17:41:35.065Z,2.6
2022-11-06T17:47:54.919Z,2.6
2022-11-06T17:54:18.004Z,2.9
2022-11-06T18:00:37.956Z,2.9
2022-11-06T18:07:00.936Z,3.1
2022-11-06T18:13:20.939Z,3.1
2022-11-06T18:19:43.896Z,4.7
2022-11-06T18:26:04.019Z,4.7
2022-11-06T18:32:26.970Z,1.7
2022-11-06T18:38:46.934Z,1.7
2022-11-06T18:45:09.899Z,3
2022-11-06T18:51:35.387Z,3
2022-11-06T18:57:52.909Z,2.7
2022-11-06T19:04:13.078Z,2.7
2022-11-06T19:10:35.981Z,2.3
2022-11-06T19:16:56.006Z,2.3
2022-11-06T19:23:18.963Z,3.7
2022-11-06T19:29:38.969Z,3.7
2022-11-06T19:36:01.916Z,1.4
2022-11-06T19:42:22.002Z,1.4
2022-11-06T19:48:45.231Z,1.5
2022-11-06T19:55:25.343Z,1.5
2022-11-06T20:01:27.987Z,1.8
2022-11-06T20:07:47.998Z,1.8
2022-11-06T20:30:35.945Z,4.3
2022-11-06T20:36:58.877Z,4.3
2022-11-06T20:43:18.933Z,4.3
2022-11-06T20:49:41.940Z,1.6
2022-11-06T20:56:01.902Z,1.6
2022-11-06T21:02:25.121Z,1.3
2022-11-06T21:08:44.917Z,1.3
2022-11-06T21:15:08.018Z,0.8
2022-11-06T21:21:27.902Z,0.8
2022-11-06T21:27:51.092Z,0.6
2022-11-06T21:34:10.990Z,0.6
2022-11-06T21:40:33.912Z,2.3
2022-11-06T21:46:53.982Z,2.3
2022-11-06T21:53:16.919Z,1.2
2022-11-06T21:59:41.396Z,1.2
2022-11-06T22:06:00.018Z,2.1
2022-11-06T22:12:19.900Z,2.1
2022-11-06T22:18:42.939Z,1.4
2022-11-06T22:25:02.959Z,1.4
2022-11-06T22:31:25.899Z,0.8
2022-11-06T22:37:45.957Z,0.8
2022-11-06T22:44:08.919Z,0.7
2022-11-06T22:50:28.954Z,0.7
2022-11-06T22:56:51.930Z,1.3
2022-11-06T23:22:23.089Z,2.4
2022-11-06T23:28:42.895Z,2.4
2022-11-06T23:35:08.119Z,2.4
2022-11-06T23:41:25.975Z,2.4
2022-11-06T23:47:48.996Z,0.8
2022-11-06T23:54:08.930Z,0.8
